Time;durP1;ratioP1;P1;durP2;ratioP2;P2;SDS_P1;SDS_P2;PMS_P1;PMS_P2;Temp;Humidity;BMP_temperature;BMP_pressure;BME280_temperature;BME280_humidity;BME280_pressure;Samples;Min_cycle;Max_cycle;Signal;HPM_P1;HPM_P2
2021/05/27 00:01:23;;;;;;;1.58;0.90;;;;;;;;;;4975640;28;20037;-46
2021/05/27 00:03:49;;;;;;;1.55;0.77;;;;;;;;;;4976298;28;20512;-46
2021/05/27 00:06:15;;;;;;;2.88;0.90;;;;;;;;;;4974875;28;20029;-46
2021/05/27 00:08:41;;;;;;;2.65;1.13;;;;;;;;;;4990256;28;20181;-46
2021/05/27 00:11:06;;;;;;;1.50;0.82;;;;;;;;;;4992796;28;20121;-46
2021/05/27 00:13:32;;;;;;;0.80;0.80;;;;;;;;;;4983182;28;20026;-46
2021/05/27 00:15:59;;;;;;;2.03;0.90;;;;;;;;;;4994308;28;20026;-46
2021/05/27 00:18:26;;;;;;;2.63;0.98;;;;;;;;;;4994568;28;20018;-45
2021/05/27 00:20:52;;;;;;;1.38;0.80;;;;;;;;;;4992908;28;20039;-45
2021/05/27 00:23:17;;;;;;;1.50;0.98;;;;;;;;;;4992204;28;20033;-46
2021/05/27 00:25:44;;;;;;;4.38;1.05;;;;;;;;;;4994016;28;20065;-46
2021/05/27 00:28:10;;;;;;;1.23;1.13;;;;;;;;;;4993940;28;20030;-46
2021/05/27 00:30:36;;;;;;;2.53;0.80;;;;;;;;;;4993124;28;20483;-46
2021/05/27 00:33:02;;;;;;;2.42;0.90;;;;;;;;;;4991957;28;20080;-46
2021/05/27 00:35:28;;;;;;;3.97;1.10;;;;;;;;;;4994175;28;20030;-46
2021/05/27 00:37:54;;;;;;;7.20;1.40;;;;;;;;;;4986120;28;20042;-46
2021/05/27 00:40:20;;;;;;;1.17;0.80;;;;;;;;;;4973167;28;20035;-46
2021/05/27 00:42:46;;;;;;;1.13;0.80;;;;;;;;;;4974436;28;20031;-46
2021/05/27 00:45:14;;;;;;;0.65;0.60;;;;;;;;;;4987270;28;20077;-46
2021/05/27 00:47:41;;;;;;;2.10;1.30;;;;;;;;;;4988232;28;20049;-46
2021/05/27 00:50:08;;;;;;;1.67;0.88;;;;;;;;;;4974051;28;20027;-45
2021/05/27 00:52:34;;;;;;;4.07;0.90;;;;;;;;;;4973317;28;20030;-46
2021/05/27 00:55:01;;;;;;;1.00;0.70;;;;;;;;;;4981158;28;20022;-46
2021/05/27 00:57:36;;;;;;;0.50;0.50;;;;;;;;;;4993514;28;20034;-46
2021/05/27 01:00:05;;;;;;;6.40;0.82;;;;;;;;;;4993261;28;20023;-46
2021/05/27 01:02:31;;;;;;;0.50;0.50;;;;;;;;;;4993173;28;20053;-46
2021/05/27 01:04:57;;;;;;;1.75;0.82;;;;;;;;;;4992092;28;20027;-46
2021/05/27 01:07:23;;;;;;;1.00;0.90;;;;;;;;;;4992677;28;20484;-46
2021/05/27 01:09:50;;;;;;;1.27;1.02;;;;;;;;;;4993560;28;20093;-46
2021/05/27 01:12:16;;;;;;;1.45;1.00;;;;;;;;;;4992713;28;20030;-46
2021/05/27 01:17:26;;;;;;;1.20;1.10;;;;;;;;;;4988885;28;20065;-46
2021/05/27 01:19:53;;;;;;;0.82;0.70;;;;;;;;;;4992673;28;20022;-46
2021/05/27 01:22:20;;;;;;;2.42;0.80;;;;;;;;;;4992407;28;20098;-46
2021/05/27 01:24:47;;;;;;;1.77;0.88;;;;;;;;;;4974525;28;20030;-46
2021/05/27 01:27:13;;;;;;;2.05;0.88;;;;;;;;;;4974895;28;20045;-46
2021/05/27 01:29:41;;;;;;;0.75;0.73;;;;;;;;;;4974024;28;20022;-46
2021/05/27 01:32:07;;;;;;;1.73;1.08;;;;;;;;;;4972627;28;20507;-48
2021/05/27 01:34:33;;;;;;;1.27;1.00;;;;;;;;;;4973408;28;20034;-46
2021/05/27 01:36:59;;;;;;;1.65;0.88;;;;;;;;;;4978406;28;20015;-46
2021/05/27 01:39:25;;;;;;;1.50;0.73;;;;;;;;;;4973055;28;20023;-47
2021/05/27 01:41:51;;;;;;;0.93;0.73;;;;;;;;;;4977885;28;20098;-48
2021/05/27 01:44:17;;;;;;;1.08;0.98;;;;;;;;;;4992888;28;20130;-46
2021/05/27 01:46:43;;;;;;;0.70;0.70;;;;;;;;;;4992159;28;20234;-46
2021/05/27 01:49:10;;;;;;;0.60;0.60;;;;;;;;;;4979374;28;20114;-46
2021/05/27 01:51:36;;;;;;;0.98;0.65;;;;;;;;;;4977984;28;20035;-46
2021/05/27 01:54:02;;;;;;;1.02;0.68;;;;;;;;;;4992647;28;20029;-46
2021/05/27 01:56:28;;;;;;;2.17;1.00;;;;;;;;;;4987191;28;20023;-46
2021/05/27 01:59:01;;;;;;;0.80;0.80;;;;;;;;;;4973845;28;20033;-45
2021/05/27 02:01:27;;;;;;;1.23;0.82;;;;;;;;;;4972080;28;20141;-46
2021/05/27 02:03:53;;;;;;;1.23;0.73;;;;;;;;;;4973177;28;20105;-46
2021/05/27 02:06:19;;;;;;;2.25;0.90;;;;;;;;;;4972777;28;20353;-46
2021/05/27 02:09:07;;;;;;;0.85;0.70;;;;;;;;;;4987080;28;20042;-46
2021/05/27 02:11:32;;;;;;;6.25;0.93;;;;;;;;;;4971822;28;20034;-46
2021/05/27 02:13:58;;;;;;;0.50;0.43;;;;;;;;;;4984048;28;20030;-46
2021/05/27 02:16:24;;;;;;;0.95;0.88;;;;;;;;;;4992086;28;20045;-46
2021/05/27 02:18:50;;;;;;;1.85;0.70;;;;;;;;;;5006529;28;20432;-46
2021/05/27 02:21:16;;;;;;;0.82;0.60;;;;;;;;;;4978234;28;20046;-46
2021/05/27 02:23:42;;;;;;;0.63;0.63;;;;;;;;;;4973194;28;20022;-46
2021/05/27 02:26:08;;;;;;;0.70;0.70;;;;;;;;;;4972311;28;20054;-46
2021/05/27 02:28:34;;;;;;;3.78;0.85;;;;;;;;;;4972713;28;20066;-46
2021/05/27 02:31:00;;;;;;;1.02;0.93;;;;;;;;;;4972239;28;20053;-45
2021/05/27 02:33:26;;;;;;;0.57;0.55;;;;;;;;;;4972271;28;20503;-46
2021/05/27 02:35:52;;;;;;;0.65;0.60;;;;;;;;;;4972288;28;20448;-46
2021/05/27 02:38:18;;;;;;;0.85;0.82;;;;;;;;;;4972684;28;20065;-46
2021/05/27 02:40:44;;;;;;;7.65;1.13;;;;;;;;;;4971722;28;20062;-46
2021/05/27 02:43:10;;;;;;;1.02;0.90;;;;;;;;;;4991408;28;20446;-46
2021/05/27 02:45:36;;;;;;;1.05;0.95;;;;;;;;;;4991418;28;20431;-46
2021/05/27 02:48:02;;;;;;;1.30;0.88;;;;;;;;;;4987906;28;20437;-48
2021/05/27 02:50:28;;;;;;;1.45;0.90;;;;;;;;;;4971556;28;20047;-48
2021/05/27 02:52:54;;;;;;;0.88;0.70;;;;;;;;;;4973506;28;20081;-48
2021/05/27 02:55:20;;;;;;;2.20;0.80;;;;;;;;;;4971814;28;20107;-46
2021/05/27 02:57:46;;;;;;;0.73;0.73;;;;;;;;;;4971828;28;20067;-46
2021/05/27 03:00:12;;;;;;;0.70;0.70;;;;;;;;;;4970620;28;20045;-45
2021/05/27 03:02:38;;;;;;;1.65;1.05;;;;;;;;;;4972554;28;20031;-46
2021/05/27 03:05:04;;;;;;;1.38;0.70;;;;;;;;;;4971966;28;20029;-46
2021/05/27 03:07:30;;;;;;;0.68;0.68;;;;;;;;;;4977433;28;20061;-46
2021/05/27 03:09:56;;;;;;;1.83;0.82;;;;;;;;;;4990821;28;20034;-46
2021/05/27 03:12:22;;;;;;;2.00;0.85;;;;;;;;;;4990530;28;20105;-46
2021/05/27 03:14:48;;;;;;;0.90;0.90;;;;;;;;;;4990224;28;20038;-46
2021/05/27 03:17:14;;;;;;;1.63;0.80;;;;;;;;;;4990559;28;20454;-46
2021/05/27 03:19:40;;;;;;;2.25;0.90;;;;;;;;;;4991617;28;20041;-46
2021/05/27 03:22:06;;;;;;;0.75;0.75;;;;;;;;;;4990310;28;20123;-46
2021/05/27 03:24:32;;;;;;;1.08;0.70;;;;;;;;;;4989496;28;20027;-46
2021/05/27 03:26:58;;;;;;;0.98;0.80;;;;;;;;;;4990220;28;20447;-46
2021/05/27 03:29:24;;;;;;;1.42;0.68;;;;;;;;;;4991562;28;20027;-45
2021/05/27 03:31:50;;;;;;;0.88;0.88;;;;;;;;;;4989631;28;20022;-46
2021/05/27 03:34:16;;;;;;;1.38;0.80;;;;;;;;;;4989562;28;20039;-46
2021/05/27 03:36:42;;;;;;;0.80;0.80;;;;;;;;;;4990941;28;20027;-46
2021/05/27 03:39:08;;;;;;;0.73;0.73;;;;;;;;;;4991225;28;20395;-46
2021/05/27 03:41:34;;;;;;;0.95;0.85;;;;;;;;;;4989847;28;20057;-46
2021/05/27 03:44:00;;;;;;;1.15;0.98;;;;;;;;;;4990953;28;20121;-46
2021/05/27 03:46:26;;;;;;;0.80;0.80;;;;;;;;;;4974196;28;20126;-46
2021/05/27 03:48:52;;;;;;;0.80;0.80;;;;;;;;;;4970188;28;20030;-46
2021/05/27 03:51:18;;;;;;;1.17;1.00;;;;;;;;;;4971086;28;20034;-46
2021/05/27 03:53:44;;;;;;;1.80;0.85;;;;;;;;;;4971656;28;20026;-46
2021/05/27 03:56:10;;;;;;;1.25;1.15;;;;;;;;;;4975347;28;20333;-46
2021/05/27 04:01:21;;;;;;;0.93;0.90;;;;;;;;;;4990701;28;20038;-46
2021/05/27 04:09:16;;;;;;;1.17;1.00;;;;;;;;;;4970993;28;20060;-46
2021/05/27 04:11:42;;;;;;;0.90;0.90;;;;;;;;;;4971654;28;20311;-46
2021/05/27 04:14:08;;;;;;;1.42;1.00;;;;;;;;;;4977797;28;20448;-46
2021/05/27 04:16:35;;;;;;;2.35;0.85;;;;;;;;;;4977516;28;20023;-46
2021/05/27 04:19:01;;;;;;;1.02;0.88;;;;;;;;;;4994509;28;20053;-46
2021/05/27 04:21:27;;;;;;;1.15;1.05;;;;;;;;;;4987017;28;20314;-46
2021/05/27 04:23:53;;;;;;;1.58;1.20;;;;;;;;;;4975002;28;20027;-50
2021/05/27 04:26:19;;;;;;;0.75;0.75;;;;;;;;;;4986822;28;20081;-46
2021/05/27 04:28:46;;;;;;;2.17;1.00;;;;;;;;;;4979812;28;20051;-46
2021/05/27 04:31:14;;;;;;;1.10;1.00;;;;;;;;;;4973921;28;20106;-46
2021/05/27 04:34:01;;;;;;;0.98;0.80;;;;;;;;;;4977705;28;20073;-46
2021/05/27 04:36:27;;;;;;;1.23;1.00;;;;;;;;;;4993604;28;20034;-46
2021/05/27 04:38:54;;;;;;;2.10;1.20;;;;;;;;;;4992644;28;20053;-46
2021/05/27 04:41:22;;;;;;;1.00;0.90;;;;;;;;;;4992989;28;20026;-46
2021/05/27 04:43:53;;;;;;;1.20;0.93;;;;;;;;;;4993893;28;20030;-46
2021/05/27 04:46:19;;;;;;;1.40;1.08;;;;;;;;;;4992566;28;20066;-46
2021/05/27 04:48:45;;;;;;;1.50;1.10;;;;;;;;;;4991620;28;20073;-46
2021/05/27 04:51:11;;;;;;;0.98;0.88;;;;;;;;;;4990016;28;20037;-46
2021/05/27 04:53:37;;;;;;;1.90;0.70;;;;;;;;;;4974492;28;20026;-46
2021/05/27 04:56:04;;;;;;;0.88;0.82;;;;;;;;;;4974334;28;20026;-46
2021/05/27 04:58:30;;;;;;;1.02;0.85;;;;;;;;;;4975243;28;20026;-46
2021/05/27 05:00:57;;;;;;;1.30;0.82;;;;;;;;;;4974235;28;20046;-46
2021/05/27 05:03:23;;;;;;;1.17;1.08;;;;;;;;;;4988654;28;20043;-46
2021/05/27 05:05:51;;;;;;;1.10;0.77;;;;;;;;;;4993397;28;20070;-46
2021/05/27 05:08:17;;;;;;;1.35;1.15;;;;;;;;;;4993308;28;20034;-46
2021/05/27 05:10:43;;;;;;;0.80;0.80;;;;;;;;;;4977582;28;20070;-46
2021/05/27 05:13:10;;;;;;;1.70;0.90;;;;;;;;;;4977723;28;20106;-46
2021/05/27 05:15:37;;;;;;;1.38;0.82;;;;;;;;;;4992244;28;20113;-45
2021/05/27 05:18:07;;;;;;;1.48;0.80;;;;;;;;;;4993244;28;20105;-46
2021/05/27 05:20:34;;;;;;;0.70;0.70;;;;;;;;;;4984428;28;20015;-46
2021/05/27 05:23:01;;;;;;;0.75;0.70;;;;;;;;;;4972773;28;20062;-46
2021/05/27 05:25:27;;;;;;;0.75;0.75;;;;;;;;;;4973422;28;20061;-45
2021/05/27 05:27:54;;;;;;;0.95;0.70;;;;;;;;;;4973347;28;20050;-46
2021/05/27 05:30:21;;;;;;;0.63;0.63;;;;;;;;;;4973748;28;20042;-46
2021/05/27 05:32:48;;;;;;;3.15;1.30;;;;;;;;;;4973105;28;20371;-46
2021/05/27 05:35:15;;;;;;;0.80;0.80;;;;;;;;;;4973582;28;20062;-45
2021/05/27 05:37:41;;;;;;;1.67;0.98;;;;;;;;;;4977764;28;20100;-46
2021/05/27 05:40:10;;;;;;;0.80;0.80;;;;;;;;;;4992415;28;20417;-45
2021/05/27 05:42:40;;;;;;;0.87;0.80;;;;;;;;;;4978786;28;20030;-46
2021/05/27 05:45:06;;;;;;;1.05;0.73;;;;;;;;;;4972834;28;20587;-46
2021/05/27 05:47:32;;;;;;;1.17;0.65;;;;;;;;;;4973463;28;20133;-45
2021/05/27 05:49:58;;;;;;;0.75;0.70;;;;;;;;;;4973288;28;20061;-46
2021/05/27 05:52:24;;;;;;;1.10;1.00;;;;;;;;;;4977865;28;20054;-46
2021/05/27 05:54:50;;;;;;;2.22;1.27;;;;;;;;;;4973126;28;20062;-46
2021/05/27 05:57:16;;;;;;;0.77;0.77;;;;;;;;;;4972973;28;20044;-45
2021/05/27 05:59:42;;;;;;;1.10;1.00;;;;;;;;;;4972612;28;20359;-46
2021/05/27 06:02:09;;;;;;;1.30;1.20;;;;;;;;;;4973627;28;20507;-46
2021/05/27 06:04:35;;;;;;;1.25;1.15;;;;;;;;;;4973053;28;20086;-45
2021/05/27 06:07:01;;;;;;;2.42;1.33;;;;;;;;;;4984432;28;20038;-46
2021/05/27 06:09:27;;;;;;;2.80;1.73;;;;;;;;;;4992058;28;20030;-46
2021/05/27 06:11:53;;;;;;;1.98;1.52;;;;;;;;;;4991373;28;20033;-46
2021/05/27 06:14:20;;;;;;;1.83;1.40;;;;;;;;;;4990976;28;20027;-46
2021/05/27 06:16:46;;;;;;;1.38;1.15;;;;;;;;;;4992526;28;20030;-46
2021/05/27 06:19:12;;;;;;;3.22;1.50;;;;;;;;;;4992123;28;20099;-46
2021/05/27 06:21:38;;;;;;;1.45;1.35;;;;;;;;;;4991697;28;20112;-45
2021/05/27 06:24:05;;;;;;;1.50;1.30;;;;;;;;;;4979711;28;20440;-46
2021/05/27 06:26:31;;;;;;;1.67;1.25;;;;;;;;;;4972601;28;20026;-46
2021/05/27 06:28:57;;;;;;;1.75;1.33;;;;;;;;;;4971957;28;20039;-46
2021/05/27 06:31:23;;;;;;;1.77;1.33;;;;;;;;;;4972063;28;20026;-45
2021/05/27 06:33:49;;;;;;;1.63;1.30;;;;;;;;;;4973197;28;20444;-46
2021/05/27 06:36:16;;;;;;;2.53;1.60;;;;;;;;;;4977632;28;20030;-46
2021/05/27 06:38:42;;;;;;;2.00;1.25;;;;;;;;;;4991639;28;20044;-47
2021/05/27 06:41:08;;;;;;;2.05;1.40;;;;;;;;;;4990950;28;20530;-48
2021/05/27 06:43:34;;;;;;;1.77;1.23;;;;;;;;;;4991980;28;20023;-48
2021/05/27 06:46:00;;;;;;;1.20;1.10;;;;;;;;;;4975406;28;20031;-46
2021/05/27 06:48:26;;;;;;;0.73;0.73;;;;;;;;;;4972334;28;20031;-46
2021/05/27 06:50:52;;;;;;;0.47;0.47;;;;;;;;;;4972468;28;20025;-46
2021/05/27 06:53:19;;;;;;;2.05;1.10;;;;;;;;;;4990916;28;20065;-46
2021/05/27 06:55:46;;;;;;;1.10;0.93;;;;;;;;;;4980757;28;20027;-47
2021/05/27 06:58:12;;;;;;;2.25;1.00;;;;;;;;;;4972076;28;20026;-46
2021/05/27 07:00:39;;;;;;;1.15;1.00;;;;;;;;;;4971068;28;20019;-47
2021/05/27 07:03:05;;;;;;;1.10;1.00;;;;;;;;;;4971925;28;20084;-47
2021/05/27 07:05:32;;;;;;;1.10;1.00;;;;;;;;;;4972955;28;20035;-46
2021/05/27 07:08:01;;;;;;;1.33;0.88;;;;;;;;;;4981614;28;20033;-46
2021/05/27 07:10:29;;;;;;;1.77;1.00;;;;;;;;;;4990361;28;20403;-46
2021/05/27 07:12:56;;;;;;;0.70;0.70;;;;;;;;;;4991261;28;20492;-46
2021/05/27 07:15:23;;;;;;;1.20;1.10;;;;;;;;;;4991390;28;20029;-45
2021/05/27 07:17:49;;;;;;;1.00;0.82;;;;;;;;;;4991024;28;20359;-46
2021/05/27 07:20:16;;;;;;;1.42;1.20;;;;;;;;;;4990454;28;20516;-46
2021/05/27 07:22:42;;;;;;;1.65;1.05;;;;;;;;;;4990860;28;20480;-46
2021/05/27 07:25:09;;;;;;;1.45;1.20;;;;;;;;;;4991208;28;20030;-46
2021/05/27 07:27:35;;;;;;;2.22;1.40;;;;;;;;;;4989613;28;20548;-46
2021/05/27 07:30:01;;;;;;;1.10;1.00;;;;;;;;;;4991123;28;20116;-46
2021/05/27 07:32:27;;;;;;;3.50;1.15;;;;;;;;;;4990339;28;20061;-45
2021/05/27 07:34:53;;;;;;;1.45;1.27;;;;;;;;;;4990455;28;20026;-46
2021/05/27 07:37:19;;;;;;;1.42;1.02;;;;;;;;;;4989838;28;20030;-46
2021/05/27 07:39:46;;;;;;;1.00;0.93;;;;;;;;;;4991170;28;20030;-46
2021/05/27 07:42:13;;;;;;;1.10;0.95;;;;;;;;;;4990048;28;20051;-46
2021/05/27 07:44:39;;;;;;;1.02;1.00;;;;;;;;;;4991283;28;20436;-46
2021/05/27 07:47:05;;;;;;;2.22;0.82;;;;;;;;;;4973910;28;20109;-46
2021/05/27 07:49:31;;;;;;;2.50;1.20;;;;;;;;;;4976395;28;20142;-46
2021/05/27 07:51:58;;;;;;;1.23;1.05;;;;;;;;;;4990004;28;20033;-46
2021/05/27 07:54:25;;;;;;;1.13;0.88;;;;;;;;;;4994700;28;20089;-46
2021/05/27 07:56:51;;;;;;;0.50;0.50;;;;;;;;;;4994392;28;20026;-46
2021/05/27 07:59:17;;;;;;;3.70;1.38;;;;;;;;;;4987240;28;20041;-45
2021/05/27 08:01:43;;;;;;;1.10;1.10;;;;;;;;;;4974539;28;20068;-46
2021/05/27 08:04:09;;;;;;;0.75;0.73;;;;;;;;;;4975019;28;20027;-46
2021/05/27 08:06:36;;;;;;;1.08;1.00;;;;;;;;;;4974962;28;20023;-46
2021/05/27 08:09:02;;;;;;;0.57;0.57;;;;;;;;;;4991326;28;20042;-46
2021/05/27 08:11:28;;;;;;;0.35;0.35;;;;;;;;;;4974892;28;20019;-46
2021/05/27 08:13:54;;;;;;;2.33;0.45;;;;;;;;;;4975300;28;20031;-49
2021/05/27 08:16:20;;;;;;;0.63;0.63;;;;;;;;;;4977585;28;20026;-46
2021/05/27 08:18:46;;;;;;;0.30;0.30;;;;;;;;;;4994040;28;20026;-46
2021/05/27 08:21:12;;;;;;;1.38;1.25;;;;;;;;;;4992178;28;20104;-46
2021/05/27 08:23:38;;;;;;;0.55;0.55;;;;;;;;;;4993992;28;20030;-46
2021/05/27 08:26:04;;;;;;;2.35;1.67;;;;;;;;;;4994071;28;20022;-46
2021/05/27 08:28:31;;;;;;;0.40;0.40;;;;;;;;;;4994399;28;20045;-46
2021/05/27 08:30:57;;;;;;;2.28;1.10;;;;;;;;;;4991466;28;20023;-46
2021/05/27 08:33:23;;;;;;;0.35;0.35;;;;;;;;;;4993703;28;20030;-46
2021/05/27 08:35:49;;;;;;;1.20;1.02;;;;;;;;;;4993972;28;20030;-46
2021/05/27 08:38:15;;;;;;;0.90;0.85;;;;;;;;;;4994430;28;20111;-46
2021/05/27 08:40:41;;;;;;;1.33;1.23;;;;;;;;;;4993499;28;20023;-47
2021/05/27 08:43:08;;;;;;;1.70;0.80;;;;;;;;;;4983926;28;20076;-46
2021/05/27 08:45:36;;;;;;;2.88;0.80;;;;;;;;;;4993912;28;20310;-46
2021/05/27 08:48:02;;;;;;;1.20;1.10;;;;;;;;;;4993144;28;20042;-47
2021/05/27 08:50:34;;;;;;;1.77;0.68;;;;;;;;;;4989467;28;20109;-46
2021/05/27 08:53:00;;;;;;;1.63;1.33;;;;;;;;;;4981583;28;20094;-46
2021/05/27 08:55:26;;;;;;;1.27;1.10;;;;;;;;;;4974145;28;20018;-45
2021/05/27 08:57:52;;;;;;;1.73;1.05;;;;;;;;;;4973775;28;20062;-47
2021/05/27 09:00:19;;;;;;;1.20;1.10;;;;;;;;;;4972631;28;20523;-46
2021/05/27 09:03:05;;;;;;;1.55;1.25;;;;;;;;;;4974974;28;20031;-46
2021/05/27 09:05:33;;;;;;;0.25;0.25;;;;;;;;;;4973987;28;20027;-45
2021/05/27 09:07:59;;;;;;;1.15;0.88;;;;;;;;;;4984113;28;20039;-46
2021/05/27 09:10:39;;;;;;;0.40;0.40;;;;;;;;;;4992480;28;20507;-46
2021/05/27 09:13:09;;;;;;;1.10;0.98;;;;;;;;;;4974210;28;20043;-48
2021/05/27 09:15:35;;;;;;;2.00;1.23;;;;;;;;;;4993674;28;20034;-46
2021/05/27 09:18:01;;;;;;;1.75;1.00;;;;;;;;;;4993455;28;20121;-46
2021/05/27 09:20:28;;;;;;;2.38;1.63;;;;;;;;;;4992600;28;20430;-46
2021/05/27 09:23:14;;;;;;;1.45;1.35;;;;;;;;;;4993345;28;20031;-46
2021/05/27 09:25:41;;;;;;;1.45;1.10;;;;;;;;;;4991238;28;20038;-46
2021/05/27 09:28:08;;;;;;;0.95;0.60;;;;;;;;;;4992938;28;20427;-46
2021/05/27 09:30:46;;;;;;;2.55;1.40;;;;;;;;;;4992440;28;20018;-46
2021/05/27 09:33:13;;;;;;;1.10;1.00;;;;;;;;;;4993307;28;20034;-46
2021/05/27 09:35:39;;;;;;;2.33;1.27;;;;;;;;;;4990859;28;20036;-45
2021/05/27 09:38:06;;;;;;;1.30;1.20;;;;;;;;;;4992481;28;20063;-46
2021/05/27 09:40:43;;;;;;;1.45;1.23;;;;;;;;;;4973630;28;20051;-46
2021/05/27 09:43:11;;;;;;;0.90;0.90;;;;;;;;;;4973314;28;20399;-45
2021/05/27 09:45:37;;;;;;;1.45;1.23;;;;;;;;;;4978633;28;20511;-46
2021/05/27 09:48:17;;;;;;;0.68;0.68;;;;;;;;;;4992537;28;20039;-46
2021/05/27 09:50:43;;;;;;;1.33;1.23;;;;;;;;;;4985995;28;20038;-46
2021/05/27 09:53:17;;;;;;;2.97;1.40;;;;;;;;;;4991741;28;20026;-45
2021/05/27 09:55:43;;;;;;;1.50;0.60;;;;;;;;;;4991513;28;20026;-46
2021/05/27 09:58:14;;;;;;;0.60;0.60;;;;;;;;;;4975705;28;20035;-46
2021/05/27 10:00:41;;;;;;;3.90;0.90;;;;;;;;;;4974020;28;20468;-46
2021/05/27 10:03:26;;;;;;;0.43;0.43;;;;;;;;;;4992127;28;20045;-46
2021/05/27 10:05:52;;;;;;;0.82;0.60;;;;;;;;;;4991959;28;20050;-46
2021/05/27 10:08:20;;;;;;;0.75;0.75;;;;;;;;;;4990834;28;20042;-46
2021/05/27 10:10:46;;;;;;;1.17;0.90;;;;;;;;;;4990844;28;20026;-45
2021/05/27 10:13:14;;;;;;;2.05;1.45;;;;;;;;;;4992405;28;20036;-46
2021/05/27 10:15:43;;;;;;;0.80;0.80;;;;;;;;;;4992318;28;20385;-46
2021/05/27 10:18:09;;;;;;;0.50;0.50;;;;;;;;;;4982157;28;20077;-46
2021/05/27 10:20:35;;;;;;;3.38;0.98;;;;;;;;;;4971723;28;20106;-46
2021/05/27 10:23:04;;;;;;;0.63;0.57;;;;;;;;;;4972823;28;20030;-46
2021/05/27 10:25:30;;;;;;;1.73;1.00;;;;;;;;;;4972730;28;20023;-46
2021/05/27 10:27:58;;;;;;;2.80;1.42;;;;;;;;;;4973786;28;20042;-46
2021/05/27 10:30:24;;;;;;;1.05;0.93;;;;;;;;;;4987245;28;20231;-46
2021/05/27 10:32:54;;;;;;;0.70;0.70;;;;;;;;;;4972016;28;20474;-46
2021/05/27 10:35:20;;;;;;;0.40;0.40;;;;;;;;;;4979315;28;20325;-46
2021/05/27 10:37:47;;;;;;;0.90;0.60;;;;;;;;;;4991790;28;20801;-46
2021/05/27 10:40:22;;;;;;;0.20;0.20;;;;;;;;;;4982084;28;20027;-46
2021/05/27 10:43:18;;;;;;;0.70;0.70;;;;;;;;;;4972463;28;20035;-46
2021/05/27 10:46:04;;;;;;;0.60;0.60;;;;;;;;;;4977223;28;20372;-46
2021/05/27 10:48:31;;;;;;;1.95;1.13;;;;;;;;;;4984309;28;20047;-46
2021/05/27 10:53:40;;;;;;;0.80;0.80;;;;;;;;;;4972429;28;20030;-47
2021/05/27 10:56:06;;;;;;;1.15;1.00;;;;;;;;;;4992060;28;20058;-46
2021/05/27 10:58:47;;;;;;;0.57;0.57;;;;;;;;;;4991648;28;20054;-46
2021/05/27 11:01:17;;;;;;;5.30;1.90;;;;;;;;;;4989761;28;20444;-46
2021/05/27 11:03:50;;;;;;;0.35;0.35;;;;;;;;;;4972243;28;20035;-47
2021/05/27 11:06:19;;;;;;;0.25;0.25;;;;;;;;;;4971531;28;20479;-46
2021/05/27 11:08:46;;;;;;;0.52;0.52;;;;;;;;;;4988080;28;20046;-46
2021/05/27 11:11:31;;;;;;;0.57;0.57;;;;;;;;;;4990639;28;20092;-46
2021/05/27 11:14:16;;;;;;;0.50;0.50;;;;;;;;;;4971593;28;20041;-45
2021/05/27 11:17:00;;;;;;;0.80;0.80;;;;;;;;;;4972328;28;20054;-47
2021/05/27 11:22:33;;;;;;;2.88;1.63;;;;;;;;;;4972858;28;20457;-46
2021/05/27 11:25:23;;;;;;;6.45;1.60;;;;;;;;;;4976145;28;20047;-46
2021/05/27 11:27:58;;;;;;;1.50;1.10;;;;;;;;;;4975630;28;20042;-46
2021/05/27 11:30:26;;;;;;;2.72;1.30;;;;;;;;;;4990344;28;20065;-46
2021/05/27 11:33:05;;;;;;;3.22;1.27;;;;;;;;;;4994490;28;20100;-46
2021/05/27 11:35:31;;;;;;;2.03;1.02;;;;;;;;;;4976150;28;20050;-46
2021/05/27 11:37:57;;;;;;;1.83;1.30;;;;;;;;;;4975551;28;20499;-46
2021/05/27 11:40:29;;;;;;;0.90;0.55;;;;;;;;;;4989360;28;20399;-49
2021/05/27 11:42:55;;;;;;;0.32;0.32;;;;;;;;;;4994345;28;20459;-46
2021/05/27 11:45:23;;;;;;;1.10;0.70;;;;;;;;;;4981242;28;20038;-47
2021/05/27 11:48:08;;;;;;;0.30;0.30;;;;;;;;;;4975644;28;20039;-46
2021/05/27 11:50:34;;;;;;;0.52;0.52;;;;;;;;;;4977543;28;20470;-45
2021/05/27 11:53:00;;;;;;;0.25;0.25;;;;;;;;;;4975002;28;20452;-46
2021/05/27 11:55:27;;;;;;;0.65;0.63;;;;;;;;;;4985942;28;20061;-46
2021/05/27 11:57:54;;;;;;;0.60;0.60;;;;;;;;;;4993243;28;20100;-46
2021/05/27 12:00:20;;;;;;;0.70;0.70;;;;;;;;;;4974860;28;20189;-46
2021/05/27 12:02:47;;;;;;;2.05;1.08;;;;;;;;;;4975033;28;20026;-46
2021/05/27 12:05:24;;;;;;;1.08;0.70;;;;;;;;;;4976098;28;20587;-46
2021/05/27 12:07:56;;;;;;;0.50;0.50;;;;;;;;;;4982976;28;20463;-46
2021/05/27 12:10:22;;;;;;;2.08;1.00;;;;;;;;;;4993897;28;20034;-46
2021/05/27 12:12:48;;;;;;;1.85;1.45;;;;;;;;;;4994242;28;20373;-46
2021/05/27 12:15:16;;;;;;;0.55;0.55;;;;;;;;;;4987287;28;20118;-46
2021/05/27 12:17:45;;;;;;;1.38;1.27;;;;;;;;;;4992830;28;20034;-45
2021/05/27 12:20:17;;;;;;;1.20;1.10;;;;;;;;;;4994205;28;20335;-46
2021/05/27 12:22:49;;;;;;;2.00;1.30;;;;;;;;;;4993748;28;20077;-46
2021/05/27 12:25:16;;;;;;;0.40;0.40;;;;;;;;;;4994246;28;20540;-46
2021/05/27 12:27:47;;;;;;;0.40;0.40;;;;;;;;;;4979939;28;20070;-46
2021/05/27 12:30:26;;;;;;;1.33;1.17;;;;;;;;;;4988549;28;20022;-47
2021/05/27 12:32:53;;;;;;;2.17;0.90;;;;;;;;;;4974167;28;20050;-48
2021/05/27 12:35:32;;;;;;;2.00;1.20;;;;;;;;;;4974632;28;20041;-46
2021/05/27 12:38:00;;;;;;;2.05;1.50;;;;;;;;;;4974861;28;20030;-46
2021/05/27 12:40:31;;;;;;;3.67;1.35;;;;;;;;;;4973906;28;20034;-46
2021/05/27 12:42:59;;;;;;;2.72;1.20;;;;;;;;;;4974050;28;20030;-46
2021/05/27 12:45:27;;;;;;;1.17;1.08;;;;;;;;;;4980210;28;20048;-46
2021/05/27 12:48:10;;;;;;;1.92;1.52;;;;;;;;;;4985456;28;20057;-46
2021/05/27 12:50:40;;;;;;;1.42;1.10;;;;;;;;;;4978355;28;20037;-46
2021/05/27 12:53:21;;;;;;;1.98;1.33;;;;;;;;;;4993690;28;20027;-46
2021/05/27 12:55:47;;;;;;;1.00;0.75;;;;;;;;;;4992939;28;20038;-46
2021/05/27 12:58:24;;;;;;;2.28;1.20;;;;;;;;;;4992795;28;20611;-46
2021/05/27 13:00:50;;;;;;;4.35;1.90;;;;;;;;;;4993193;28;20364;-46
2021/05/27 13:03:17;;;;;;;1.23;0.93;;;;;;;;;;4993353;28;20033;-45
2021/05/27 13:05:43;;;;;;;1.52;1.40;;;;;;;;;;4992058;28;20033;-46
2021/05/27 13:08:09;;;;;;;4.72;1.52;;;;;;;;;;4992958;28;20423;-46
2021/05/27 13:10:39;;;;;;;6.47;1.80;;;;;;;;;;4991858;28;20057;-46
2021/05/27 13:13:05;;;;;;;2.97;1.48;;;;;;;;;;4992825;28;20037;-46
2021/05/27 13:15:42;;;;;;;2.33;1.20;;;;;;;;;;4990066;28;20443;-46
2021/05/27 13:18:09;;;;;;;1.63;1.52;;;;;;;;;;4974242;28;20057;-46
2021/05/27 13:20:54;;;;;;;1.55;0.80;;;;;;;;;;4973176;28;20062;-46
2021/05/27 13:23:23;;;;;;;2.58;1.05;;;;;;;;;;4973538;28;20464;-46
2021/05/27 13:25:49;;;;;;;1.20;0.97;;;;;;;;;;4974599;28;20114;-46
2021/05/27 13:28:22;;;;;;;0.82;0.75;;;;;;;;;;4989598;28;20521;-46
2021/05/27 13:30:50;;;;;;;1.38;0.95;;;;;;;;;;4992195;28;20452;-46
2021/05/27 13:33:18;;;;;;;4.35;1.23;;;;;;;;;;4992795;28;20058;-46
2021/05/27 13:35:45;;;;;;;2.45;1.25;;;;;;;;;;4991468;28;20022;-46
2021/05/27 13:38:12;;;;;;;1.52;0.90;;;;;;;;;;4992859;28;20082;-46
2021/05/27 13:40:38;;;;;;;0.90;0.90;;;;;;;;;;4992308;28;20034;-46
2021/05/27 13:43:08;;;;;;;3.03;0.80;;;;;;;;;;4992358;28;20026;-46
2021/05/27 13:45:34;;;;;;;0.80;0.77;;;;;;;;;;4990949;28;20150;-46
2021/05/27 13:48:00;;;;;;;2.20;1.05;;;;;;;;;;4991768;28;20353;-46
2021/05/27 13:50:28;;;;;;;1.25;0.95;;;;;;;;;;4988733;28;20109;-46
2021/05/27 13:53:01;;;;;;;2.15;0.90;;;;;;;;;;4973579;28;20105;-45
2021/05/27 13:55:28;;;;;;;2.22;0.90;;;;;;;;;;4973066;28;20074;-46
2021/05/27 13:57:55;;;;;;;1.30;0.73;;;;;;;;;;4989321;28;20101;-46
2021/05/27 14:00:21;;;;;;;1.42;0.93;;;;;;;;;;4991212;28;20526;-46
2021/05/27 14:02:48;;;;;;;0.50;0.50;;;;;;;;;;4992192;28;20038;-46
2021/05/27 14:05:15;;;;;;;1.30;0.93;;;;;;;;;;4992177;28;20559;-46
2021/05/27 14:07:41;;;;;;;3.00;0.90;;;;;;;;;;4990656;28;20362;-46
2021/05/27 14:10:08;;;;;;;1.67;0.70;;;;;;;;;;4989652;28;20057;-46
2021/05/27 14:12:34;;;;;;;6.32;0.88;;;;;;;;;;4992298;28;20033;-46
2021/05/27 14:15:00;;;;;;;1.00;0.60;;;;;;;;;;4991559;28;20459;-46
2021/05/27 14:17:26;;;;;;;1.00;0.77;;;;;;;;;;4990775;28;20476;-46
2021/05/27 14:19:52;;;;;;;0.70;0.52;;;;;;;;;;4991893;28;20034;-46
2021/05/27 14:22:19;;;;;;;2.60;0.70;;;;;;;;;;4991002;28;20049;-45
2021/05/27 14:24:45;;;;;;;0.75;0.70;;;;;;;;;;4991951;28;20035;-45
2021/05/27 14:27:11;;;;;;;1.40;0.60;;;;;;;;;;4983949;28;20522;-45
2021/05/27 14:29:39;;;;;;;1.08;0.80;;;;;;;;;;4973779;28;20034;-45
2021/05/27 14:32:05;;;;;;;3.25;0.90;;;;;;;;;;4971639;28;20106;-46
2021/05/27 14:34:31;;;;;;;4.30;0.80;;;;;;;;;;4972039;28;20051;-46
2021/05/27 14:36:57;;;;;;;0.80;0.80;;;;;;;;;;4972445;28;20483;-45
2021/05/27 14:39:23;;;;;;;2.55;1.02;;;;;;;;;;4973361;28;20035;-45
2021/05/27 14:41:51;;;;;;;1.75;0.60;;;;;;;;;;4971626;28;20388;-46
2021/05/27 14:44:17;;;;;;;0.60;0.60;;;;;;;;;;4972546;28;20042;-45
2021/05/27 14:46:43;;;;;;;0.60;0.60;;;;;;;;;;4983311;28;20360;-45
2021/05/27 14:49:09;;;;;;;0.50;0.50;;;;;;;;;;4981538;28;20117;-45
2021/05/27 14:51:35;;;;;;;5.97;1.35;;;;;;;;;;4982461;28;20042;-45
2021/05/27 14:54:02;;;;;;;1.00;0.70;;;;;;;;;;4982530;28;20022;-45
2021/05/27 14:56:28;;;;;;;0.70;0.70;;;;;;;;;;4981971;28;20083;-45
2021/05/27 14:58:55;;;;;;;0.80;0.63;;;;;;;;;;4980085;28;20034;-45
2021/05/27 15:01:21;;;;;;;0.60;0.60;;;;;;;;;;4979683;28;20078;-45
2021/05/27 15:03:47;;;;;;;1.15;0.80;;;;;;;;;;4977400;28;20054;-45